Latest Weather Observations for Horn Island

IDQ60801

Issued at 10:32 am EST Tuesday 28 April 2015 (issued every 30 minutes, with the page automatically refreshed every 10 minutes)

About weather observations | Map of weather stations | Latest weather observations for QLD | Other Formats
Station Details ID: 027058 Name: HORN ISLAND Lat: -10.58 Lon: 142.29 Height: 4.0 m
Data from the previous 72 hours. | See also: Recent months at Horn Island
Date/Time
EST
Temp
°C
App
Temp
°C
Dew
Point
Rel
Hum
%
Delta-T
°C
Wind Press
QNH
hPa
Press
MSL
hPa
Rain
since 9 am
mm
Dir
 
Spd
km/h
Gust
km/h
Spd
kts
Gust
kts
28/10:30am 29.5 29.2 22.5 66 4.8 ESE 28 39 15 21 1013.2 - 0.0
28/10:00am 28.7 28.5 22.0 67 4.5 ESE 26 37 14 20 1013.3 - 0.0
28/09:30am 27.8 28.6 22.5 73 3.6 SE 22 33 12 18 1013.3 - 0.0
28/09:00am 27.2 28.4 22.2 74 3.4 SSE 19 26 10 14 1013.3 1013.3 0.0
28/08:30am 27.1 29.2 22.5 76 3.1 SSE 15 20 8 11 1013.2 - 0.0
28/08:00am 26.4 28.7 22.7 80 2.5 SSE 15 20 8 11 1013.1 - 0.0
28/07:30am 25.8 28.6 22.3 81 2.3 SSE 11 15 6 8 1012.9 - 0.0
28/07:00am 25.4 28.0 21.9 81 2.3 SSE 11 15 6 8 1012.6 - 0.0
28/06:30am 25.5 27.3 21.8 80 2.5 SSE 15 20 8 11 1012.4 - 0.0
28/06:00am 25.6 27.8 21.9 80 2.5 SSE 13 17 7 9 1012.2 1012.2 0.0
28/05:30am 25.5 27.7 21.8 80 2.5 SSE 13 17 7 9 1011.9 - 0.0
28/05:00am 25.6 27.4 21.9 80 2.5 S 15 20 8 11 1011.7 - 0.0
28/04:30am 25.8 27.6 21.9 79 2.6 SSE 15 20 8 11 1011.8 - 0.0
28/04:00am 26.1 27.4 21.7 77 2.9 SSE 17 26 9 14 1011.9 - 0.0
28/03:30am 26.1 27.4 21.7 77 2.9 SSE 17 26 9 14 1011.7 - 0.0
28/03:00am 26.3 27.6 21.7 76 3.1 SSE 17 24 9 13 1011.8 1011.8 0.0
28/02:30am 26.6 27.9 21.6 74 3.3 SE 17 28 9 15 1012.2 - 0.0
28/02:00am 26.8 26.7 21.5 72 3.5 SE 24 33 13 18 1012.5 - 0.0
28/01:30am 26.8 26.3 21.5 72 3.5 SE 26 37 14 20 1012.9 - 0.0
28/01:00am 26.9 26.5 21.6 72 3.5 SE 26 35 14 19 1013.3 - 0.0
28/12:30am 26.9 27.0 21.2 71 3.8 SE 22 35 12 19 1013.6 - 0.0
28/12:00am 27.0 27.1 21.1 70 3.9 SE 22 30 12 16 1013.9 1013.9 0.0
 
Date/Time
EST
Temp
°C
App
Temp
°C
Dew
Point
Rel
Hum
%
Delta-T
°C
Wind Press
QNH
hPa
Press
MSL
hPa
Rain
since 9 am
mm
Dir
 
Spd
km/h
Gust
km/h
Spd
kts
Gust
kts
27/11:30pm 27.0 27.2 21.3 71 3.8 SE 22 28 12 15 1014.0 - 0.0
27/11:00pm 27.2 26.1 21.0 69 4.1 ESE 28 43 15 23 1013.9 - 0.0
27/10:30pm 27.2 26.3 21.5 71 3.8 ESE 28 41 15 22 1013.7 - 0.0
27/10:00pm 27.1 27.1 21.6 72 3.7 SE 24 35 13 19 1013.6 - 0.0
27/09:30pm 27.1 27.0 21.4 71 3.8 SE 24 33 13 18 1013.3 - 0.0
27/09:00pm 27.1 27.2 21.2 70 3.9 SE 22 30 12 16 1013.0 1013.0 0.0
27/08:30pm 27.2 26.7 21.5 71 3.8 SE 26 39 14 21 1012.4 - 0.0
27/08:00pm 27.3 26.7 21.3 69 4.0 SE 26 39 14 21 1012.0 - 0.0
27/07:30pm 27.4 26.5 20.7 67 4.4 SE 26 37 14 20 1011.7 - 0.0
27/07:00pm 27.4 26.4 20.5 66 4.5 ESE 26 41 14 22 1011.3 - 0.0
27/06:30pm 27.4 25.9 21.0 68 4.2 SE 30 43 16 23 1011.2 - 0.0
27/06:00pm 27.6 26.8 20.9 67 4.4 SE 26 41 14 22 1011.0 1011.0 0.0
27/05:30pm 28.0 27.2 20.8 65 4.8 ESE 26 43 14 23 1010.8 - 0.0
27/05:00pm 28.5 27.3 20.8 63 5.1 ESE 28 39 15 21 1010.5 - 0.0
27/04:30pm 29.2 28.3 20.6 59 5.7 ESE 26 39 14 21 1010.4 - 0.0
27/04:00pm 29.1 27.9 20.8 61 5.5 ESE 28 39 15 21 1010.1 - 0.0
27/03:30pm 29.3 27.8 21.0 61 5.5 SE 30 37 16 20 1009.9 - 0.0
27/03:00pm 29.6 28.3 20.7 58 5.9 ESE 28 39 15 21 1010.0 1010.0 0.0
27/02:30pm 29.8 28.0 20.4 57 6.2 ESE 30 43 16 23 1010.0 - 0.0
27/02:00pm 29.7 28.3 20.5 57 6.1 ESE 28 41 15 22 1010.3 - 0.0
27/01:30pm 29.7 28.3 21.1 60 5.7 ESE 30 43 16 23 1010.6 - 0.0
27/01:00pm 30.2 28.9 21.3 59 6.0 ESE 30 43 16 23 1011.1 - 0.0
27/12:30pm 29.6 28.6 21.3 61 5.6 ESE 28 39 15 21 1011.5 - 0.0
27/12:00pm 29.5 28.0 20.9 60 5.7 ESE 30 39 16 21 1012.1 1012.1 0.0
27/11:30am 29.0 26.8 20.4 59 5.7 ESE 32 41 17 22 1012.5 - 0.0
27/11:00am 28.6 27.1 20.9 63 5.1 ESE 30 41 16 22 1012.8 - 0.0
27/10:30am 29.7 28.6 21.1 60 5.7 ESE 28 41 15 22 1013.2 - 0.0
27/10:00am 28.7 26.3 20.4 60 5.5 E 33 43 18 23 1013.3 - 0.0
27/09:30am 28.9 27.4 20.9 62 5.3 E 30 41 16 22 1013.2 - 0.0
27/09:00am 28.3 27.2 20.3 62 5.3 ESE 26 35 14 19 1013.0 1013.0 0.0
27/08:30am 27.5 26.4 20.3 65 4.7 ESE 26 35 14 19 1012.8 - 0.0
27/08:00am 27.5 26.9 20.6 66 4.5 ESE 24 35 13 19 1012.4 - 0.0
27/07:30am 27.0 25.9 20.3 66 4.4 ESE 26 37 14 20 1012.2 - 0.0
27/07:00am 26.7 26.7 21.0 71 3.8 ESE 22 33 12 18 1011.7 - 0.0
27/06:30am 26.5 25.4 20.3 68 4.1 ESE 26 37 14 20 1011.5 - 0.0
27/06:00am 26.4 25.7 20.3 69 4.0 ESE 24 37 13 20 1011.3 1011.3 0.0
27/05:30am 26.6 25.1 20.2 68 4.2 ESE 28 39 15 21 1011.0 - 0.0
27/05:00am 26.5 25.4 20.3 68 4.1 ESE 26 35 14 19 1011.0 - 0.0
27/04:30am 26.5 25.0 20.3 68 4.1 ESE 28 37 15 20 1010.9 - 0.0
27/04:00am 26.5 25.0 20.3 68 4.1 ESE 28 37 15 20 1011.0 - 0.0
27/03:30am 26.6 24.8 20.4 69 4.1 ESE 30 37 16 20 1011.0 - 0.0
27/03:00am 26.3 25.8 20.8 71 3.6 ESE 24 35 13 19 1011.1 1011.1 0.0
27/02:30am 26.7 24.2 20.1 67 4.3 ESE 33 44 18 24 1011.1 - 0.0
27/02:00am 26.5 25.3 20.1 68 4.2 ESE 26 33 14 18 1011.2 - 0.0
27/01:30am 26.5 25.1 19.6 66 4.5 ESE 26 39 14 21 1011.7 - 0.0
27/01:00am 26.6 25.8 20.9 71 3.8 ESE 26 33 14 18 1012.1 - 0.0
27/12:30am 26.7 25.5 20.1 67 4.3 ESE 26 41 14 22 1012.5 - 0.0
27/12:00am 26.7 25.3 20.5 69 4.1 ESE 28 39 15 21 1012.8 1012.8 0.0
 
Date/Time
EST
Temp
°C
App
Temp
°C
Dew
Point
Rel
Hum
%
Delta-T
°C
Wind Press
QNH
hPa
Press
MSL
hPa
Rain
since 9 am
mm
Dir
 
Spd
km/h
Gust
km/h
Spd
kts
Gust
kts
26/11:30pm 26.7 25.2 20.3 68 4.2 ESE 28 39 15 21 1012.9 - 0.0
26/11:00pm 26.6 26.7 21.1 72 3.6 ESE 22 33 12 18 1013.1 - 0.0
26/10:30pm 26.8 26.0 20.9 70 3.9 ESE 26 35 14 19 1013.1 - 0.0
26/10:00pm 26.7 27.4 21.5 73 3.5 SE 20 30 11 16 1013.2 - 0.0
26/09:30pm 26.7 27.8 21.9 75 3.2 SE 19 26 10 14 1013.3 - 0.0
26/09:00pm 26.8 27.0 22.0 75 3.2 SE 24 30 13 16 1012.9 1012.9 0.0
26/08:30pm 26.8 27.3 22.0 75 3.2 SE 22 28 12 15 1012.6 - 0.0
26/08:00pm 26.9 28.5 22.1 75 3.2 SE 17 24 9 13 1012.2 - 0.0
26/07:30pm 27.0 27.8 21.7 73 3.5 ESE 20 26 11 14 1011.9 - 0.0
26/07:00pm 27.1 27.9 21.8 73 3.5 ESE 20 28 11 15 1011.6 - 0.0
26/06:30pm 27.3 28.0 21.6 71 3.8 ESE 20 32 11 17 1011.1 - 0.0
26/06:00pm 27.8 28.7 21.6 69 4.1 ESE 19 24 10 13 1010.8 1010.8 0.0
26/05:30pm 28.4 28.6 21.4 66 4.7 ESE 22 30 12 16 1010.6 - 0.0
26/05:00pm 28.8 29.8 22.1 67 4.5 E 20 30 11 16 1010.4 - 0.0
26/04:30pm 29.1 29.2 21.8 64 4.9 E 24 33 13 18 1010.2 - 0.0
26/04:00pm 29.1 28.7 21.6 64 5.0 E 26 32 14 17 1010.1 - 0.0
26/03:30pm 29.1 29.2 21.8 64 4.9 E 24 32 13 17 1010.0 - 0.0
26/03:00pm 29.3 29.6 22.3 66 4.7 E 24 33 13 18 1010.1 1010.1 0.0
26/02:30pm 29.4 29.2 22.1 65 4.9 E 26 33 14 18 1010.2 - 0.0
26/02:00pm 29.9 30.4 22.6 65 5.0 E 24 32 13 17 1010.5 - 0.0
26/01:30pm 29.5 29.3 22.0 64 5.1 E 26 35 14 19 1010.6 - 0.0
26/01:00pm 29.7 30.4 22.9 67 4.6 E 24 32 13 17 1010.7 - 0.0
26/12:30pm 29.5 29.6 22.5 66 4.8 ESE 26 32 14 17 1010.9 - 0.0
26/12:00pm 29.1 29.4 22.3 66 4.6 E 24 33 13 18 1011.3 1011.3 0.0
26/11:30am 29.3 29.5 22.0 64 4.9 ESE 24 30 13 16 1011.6 - 0.0
26/11:00am 29.2 29.7 22.7 68 4.4 E 24 33 13 18 1011.9 - 0.0
26/10:30am 29.3 30.1 22.5 67 4.6 ESE 22 30 12 16 1012.1 - 0.0
26/10:00am 28.6 28.7 21.9 67 4.5 ESE 24 32 13 17 1012.2 - 0.0
26/09:30am 28.7 30.2 22.7 70 4.1 ESE 19 26 10 14 1012.1 - 0.0
26/09:00am 28.3 29.9 22.8 72 3.7 SE 19 24 10 13 1011.9 1011.9 0.0
26/08:30am 27.9 29.3 22.6 73 3.6 SE 19 24 10 13 1011.7 - 0.0
26/08:00am 27.4 29.2 22.6 75 3.2 SE 17 20 9 11 1011.6 - 0.0
26/07:30am 26.6 29.3 22.9 80 2.5 SE 13 19 7 10 1011.3 - 0.0
26/07:00am 25.2 29.1 22.5 85 1.8 SE 6 7 3 4 1011.0 - 0.0
26/06:30am 25.6 29.3 22.5 83 2.1 SE 7 11 4 6 1010.7 - 0.0
26/06:00am 25.9 28.6 22.2 80 2.5 SE 11 17 6 9 1010.5 1010.5 0.0
26/05:30am 26.0 28.4 22.3 80 2.5 SE 13 20 7 11 1010.3 - 0.0
26/05:00am 25.9 28.6 22.2 80 2.5 ESE 11 15 6 8 1010.1 - 0.0
26/04:30am 26.2 28.5 22.1 78 2.7 ESE 13 19 7 10 1010.1 - 0.0
26/04:00am 26.8 27.8 21.8 74 3.3 ESE 19 24 10 13 1010.1 - 0.0
26/03:30am 26.9 28.6 22.3 76 3.1 ESE 17 24 9 13 1010.2 - 0.0
26/03:00am 26.9 28.9 22.3 76 3.1 ESE 15 20 8 11 1010.3 1010.3 0.0
26/02:30am 27.0 29.1 22.4 76 3.1 E 15 20 8 11 1010.3 - 0.0
26/02:00am 26.7 28.8 22.5 78 2.8 ESE 15 17 8 9 1010.4 - 0.0
26/01:30am 26.8 28.9 22.4 77 3.0 E 15 24 8 13 1010.7 - 0.0
26/01:00am 26.9 28.7 22.5 77 3.0 E 17 24 9 13 1010.8 - 0.0
26/12:30am 26.8 29.0 22.6 78 2.8 E 15 24 8 13 1011.1 - 0.0
26/12:00am 26.9 29.2 22.7 78 2.8 E 15 24 8 13 1011.5 1011.5 0.0
 
Date/Time
EST
Temp
°C
App
Temp
°C
Dew
Point
Rel
Hum
%
Delta-T
°C
Wind Press
QNH
hPa
Press
MSL
hPa
Rain
since 9 am
mm
Dir
 
Spd
km/h
Gust
km/h
Spd
kts
Gust
kts
25/11:30pm 27.0 29.1 22.4 76 3.1 E 15 19 8 10 1011.7 - 0.0
25/11:00pm 27.2 28.5 22.4 75 3.2 E 19 26 10 14 1011.8 - 0.0
25/10:30pm 27.2 28.6 22.6 76 3.1 E 19 26 10 14 1011.7 - 0.0
25/10:00pm 27.3 29.2 22.7 76 3.1 E 17 26 9 14 1011.7 - 0.0
25/09:30pm 27.4 29.3 22.8 76 3.1 E 17 22 9 12 1011.8 - 0.0
25/09:00pm 27.4 29.3 22.8 76 3.1 E 17 22 9 12 1011.5 1011.5 0.0
25/08:30pm 27.5 29.0 22.7 75 3.3 E 19 26 10 14 1011.1 - 0.0
25/08:00pm 27.5 29.0 22.0 72 3.7 E 17 24 9 13 1010.7 - 0.0
25/07:30pm 27.6 29.0 21.9 71 3.8 E 17 22 9 12 1010.3 - 0.0
25/07:00pm 27.7 29.8 22.4 73 3.6 E 15 20 8 11 1009.8 - 0.0
25/06:30pm 27.8 30.2 23.0 75 3.3 E 15 19 8 10 1009.5 - 0.0
25/06:00pm 28.0 30.7 23.4 76 3.2 E 15 20 8 11 1009.0 1009.0 0.0
25/05:30pm 28.2 30.6 22.9 73 3.6 E 15 20 8 11 1008.9 - 0.0
25/05:00pm 28.2 30.5 22.7 72 3.7 E 15 22 8 12 1008.9 - 0.0
25/04:30pm 28.2 30.3 22.4 71 3.9 E 15 20 8 11 1008.6 - 0.0
25/04:00pm 28.4 30.6 22.6 71 3.9 E 15 22 8 12 1008.3 - 0.0
25/03:30pm 28.5 30.6 22.5 70 4.1 ENE 15 20 8 11 1008.3 - 0.0
25/03:00pm 28.5 31.4 22.5 70 4.1 ENE 11 17 6 9 1008.5 1008.5 0.0
25/02:30pm 28.6 31.4 22.3 68 4.3 ENE 11 17 6 9 1008.7 - 0.0
25/02:00pm 28.7 31.0 22.0 67 4.5 E 13 17 7 9 1009.0 - 0.0
25/01:30pm 28.9 30.5 21.4 64 5.0 E 15 20 8 11 1009.2 - 0.0
25/01:00pm 29.0 30.1 20.4 59 5.7 E 15 19 8 10 1009.7 - 0.0
25/12:30pm 29.3 30.1 20.7 59 5.7 E 17 20 9 11 1010.3 - 0.0
25/12:00pm 29.1 30.2 21.3 62 5.2 ESE 17 22 9 12 1010.7 1010.7 0.0
25/11:30am 29.1 30.3 22.1 66 4.7 ESE 19 26 10 14 1011.0 - 0.0
25/11:00am 28.8 30.2 22.8 70 4.1 ESE 20 26 11 14 1011.4 - 0.0

Other Formats:

Comma delimited format used in spreadsheet applications
http://www.bom.gov.au/fwo/IDQ60801/IDQ60801.94174.axf

JavaScript Object Notation format (JSON) in row-major order
http://www.bom.gov.au/fwo/IDQ60801/IDQ60801.94174.json